sensor_id;sensor_type;location;lat;lon;timestamp;P1;durP1;ratioP1;P2;durP2;ratioP2
22111;SDS011;11222;50.872;4.312;2022-12-07T00:01:25;25.67;;;18.77;;
22111;SDS011;11222;50.872;4.312;2022-12-07T00:03:53;29.25;;;19.33;;
22111;SDS011;11222;50.872;4.312;2022-12-07T00:06:25;26.20;;;18.45;;
22111;SDS011;11222;50.872;4.312;2022-12-07T00:08:51;25.42;;;18.48;;
22111;SDS011;11222;50.872;4.312;2022-12-07T00:11:18;26.95;;;17.83;;
22111;SDS011;11222;50.872;4.312;2022-12-07T00:13:46;30.05;;;19.23;;
22111;SDS011;11222;50.872;4.312;2022-12-07T00:16:16;30.13;;;19.38;;
22111;SDS011;11222;50.872;4.312;2022-12-07T00:18:43;29.88;;;18.70;;
22111;SDS011;11222;50.872;4.312;2022-12-07T00:21:10;27.27;;;18.15;;
22111;SDS011;11222;50.872;4.312;2022-12-07T00:23:41;30.33;;;18.70;;
22111;SDS011;11222;50.872;4.312;2022-12-07T00:26:12;31.77;;;19.23;;
22111;SDS011;11222;50.872;4.312;2022-12-07T00:28:40;33.28;;;19.02;;
22111;SDS011;11222;50.872;4.312;2022-12-07T00:31:07;28.75;;;18.15;;
22111;SDS011;11222;50.872;4.312;2022-12-07T00:33:35;29.25;;;19.02;;
22111;SDS011;11222;50.872;4.312;2022-12-07T00:36:03;27.25;;;17.65;;
22111;SDS011;11222;50.872;4.312;2022-12-07T00:38:35;30.05;;;18.50;;
22111;SDS011;11222;50.872;4.312;2022-12-07T00:41:02;26.40;;;18.17;;
22111;SDS011;11222;50.872;4.312;2022-12-07T00:43:30;25.60;;;18.20;;
22111;SDS011;11222;50.872;4.312;2022-12-07T00:45:56;31.55;;;17.73;;
22111;SDS011;11222;50.872;4.312;2022-12-07T00:48:23;23.67;;;17.20;;
22111;SDS011;11222;50.872;4.312;2022-12-07T00:50:49;31.20;;;18.73;;
22111;SDS011;11222;50.872;4.312;2022-12-07T00:53:15;29.48;;;18.60;;
22111;SDS011;11222;50.872;4.312;2022-12-07T00:55:42;28.88;;;18.90;;
22111;SDS011;11222;50.872;4.312;2022-12-07T00:58:08;28.58;;;18.55;;
22111;SDS011;11222;50.872;4.312;2022-12-07T01:00:35;28.25;;;18.63;;
22111;SDS011;11222;50.872;4.312;2022-12-07T01:03:03;29.58;;;18.90;;
22111;SDS011;11222;50.872;4.312;2022-12-07T01:05:29;28.52;;;18.20;;
22111;SDS011;11222;50.872;4.312;2022-12-07T01:07:55;29.35;;;19.60;;
22111;SDS011;11222;50.872;4.312;2022-12-07T01:10:20;32.03;;;18.65;;
22111;SDS011;11222;50.872;4.312;2022-12-07T01:12:47;28.15;;;18.10;;
22111;SDS011;11222;50.872;4.312;2022-12-07T01:15:13;29.23;;;19.45;;
22111;SDS011;11222;50.872;4.312;2022-12-07T01:17:39;28.90;;;19.67;;
22111;SDS011;11222;50.872;4.312;2022-12-07T01:20:05;30.77;;;19.40;;
22111;SDS011;11222;50.872;4.312;2022-12-07T01:22:31;29.17;;;18.88;;
22111;SDS011;11222;50.872;4.312;2022-12-07T01:25:01;30.10;;;19.65;;
22111;SDS011;11222;50.872;4.312;2022-12-07T01:27:26;30.02;;;19.77;;
22111;SDS011;11222;50.872;4.312;2022-12-07T01:29:52;29.25;;;19.13;;
22111;SDS011;11222;50.872;4.312;2022-12-07T01:32:18;28.75;;;19.00;;
22111;SDS011;11222;50.872;4.312;2022-12-07T01:34:43;28.42;;;19.50;;
22111;SDS011;11222;50.872;4.312;2022-12-07T01:37:09;29.15;;;19.98;;
22111;SDS011;11222;50.872;4.312;2022-12-07T01:39:35;30.95;;;20.17;;
22111;SDS011;11222;50.872;4.312;2022-12-07T01:42:01;32.78;;;19.23;;
22111;SDS011;11222;50.872;4.312;2022-12-07T01:44:29;33.70;;;20.48;;
22111;SDS011;11222;50.872;4.312;2022-12-07T01:47:00;31.33;;;20.40;;
22111;SDS011;11222;50.872;4.312;2022-12-07T01:49:32;30.25;;;20.33;;
22111;SDS011;11222;50.872;4.312;2022-12-07T01:54:54;27.95;;;19.60;;
22111;SDS011;11222;50.872;4.312;2022-12-07T01:57:23;36.90;;;20.42;;
22111;SDS011;11222;50.872;4.312;2022-12-07T01:59:50;34.80;;;20.38;;
22111;SDS011;11222;50.872;4.312;2022-12-07T02:02:18;30.35;;;20.13;;
22111;SDS011;11222;50.872;4.312;2022-12-07T02:04:59;28.60;;;19.92;;
22111;SDS011;11222;50.872;4.312;2022-12-07T02:07:26;36.13;;;21.23;;
22111;SDS011;11222;50.872;4.312;2022-12-07T02:09:52;34.10;;;21.45;;
22111;SDS011;11222;50.872;4.312;2022-12-07T02:12:19;32.83;;;22.55;;
22111;SDS011;11222;50.872;4.312;2022-12-07T02:14:45;32.05;;;22.58;;
22111;SDS011;11222;50.872;4.312;2022-12-07T02:17:57;32.92;;;22.23;;
22111;SDS011;11222;50.872;4.312;2022-12-07T02:20:13;32.35;;;22.02;;
22111;SDS011;11222;50.872;4.312;2022-12-07T02:23:13;37.25;;;21.98;;
22111;SDS011;11222;50.872;4.312;2022-12-07T02:28:21;29.63;;;20.75;;
22111;SDS011;11222;50.872;4.312;2022-12-07T02:30:52;29.92;;;20.98;;
22111;SDS011;11222;50.872;4.312;2022-12-07T02:33:27;33.65;;;22.20;;
22111;SDS011;11222;50.872;4.312;2022-12-07T02:36:04;31.35;;;20.67;;
22111;SDS011;11222;50.872;4.312;2022-12-07T02:38:37;31.45;;;20.45;;
22111;SDS011;11222;50.872;4.312;2022-12-07T02:41:15;31.63;;;21.05;;
22111;SDS011;11222;50.872;4.312;2022-12-07T02:43:53;31.63;;;19.83;;
22111;SDS011;11222;50.872;4.312;2022-12-07T02:46:23;32.90;;;19.73;;
22111;SDS011;11222;50.872;4.312;2022-12-07T02:48:53;29.80;;;18.67;;
22111;SDS011;11222;50.872;4.312;2022-12-07T02:51:20;30.75;;;19.58;;
22111;SDS011;11222;50.872;4.312;2022-12-07T02:53:47;26.25;;;18.25;;
22111;SDS011;11222;50.872;4.312;2022-12-07T03:13:00;27.73;;;17.63;;
22111;SDS011;11222;50.872;4.312;2022-12-07T03:16:14;32.55;;;18.13;;
22111;SDS011;11222;50.872;4.312;2022-12-07T03:18:43;25.50;;;17.75;;
22111;SDS011;11222;50.872;4.312;2022-12-07T03:21:27;30.48;;;18.80;;
22111;SDS011;11222;50.872;4.312;2022-12-07T03:23:59;27.02;;;17.67;;
22111;SDS011;11222;50.872;4.312;2022-12-07T03:26:34;26.52;;;18.50;;
22111;SDS011;11222;50.872;4.312;2022-12-07T03:29:07;28.98;;;18.63;;
22111;SDS011;11222;50.872;4.312;2022-12-07T03:31:41;26.25;;;16.70;;
22111;SDS011;11222;50.872;4.312;2022-12-07T03:34:14;25.55;;;17.70;;
22111;SDS011;11222;50.872;4.312;2022-12-07T03:36:52;27.65;;;18.15;;
22111;SDS011;11222;50.872;4.312;2022-12-07T03:41:54;57.67;;;23.73;;
22111;SDS011;11222;50.872;4.312;2022-12-07T03:44:22;32.67;;;19.02;;
22111;SDS011;11222;50.872;4.312;2022-12-07T03:54:48;27.27;;;17.17;;
22111;SDS011;11222;50.872;4.312;2022-12-07T03:57:18;29.00;;;17.90;;
22111;SDS011;11222;50.872;4.312;2022-12-07T03:59:46;25.05;;;17.83;;
22111;SDS011;11222;50.872;4.312;2022-12-07T04:02:13;29.60;;;17.52;;
22111;SDS011;11222;50.872;4.312;2022-12-07T04:04:39;23.70;;;16.92;;
22111;SDS011;11222;50.872;4.312;2022-12-07T04:07:06;27.08;;;17.10;;
22111;SDS011;11222;50.872;4.312;2022-12-07T04:09:32;27.02;;;17.63;;
22111;SDS011;11222;50.872;4.312;2022-12-07T04:11:57;24.50;;;16.77;;
22111;SDS011;11222;50.872;4.312;2022-12-07T04:14:23;28.90;;;17.00;;
22111;SDS011;11222;50.872;4.312;2022-12-07T04:16:50;26.90;;;17.15;;
22111;SDS011;11222;50.872;4.312;2022-12-07T04:19:18;26.70;;;16.50;;
22111;SDS011;11222;50.872;4.312;2022-12-07T04:21:45;24.50;;;17.15;;
22111;SDS011;11222;50.872;4.312;2022-12-07T04:24:12;25.35;;;16.80;;
22111;SDS011;11222;50.872;4.312;2022-12-07T04:26:39;24.83;;;17.52;;
22111;SDS011;11222;50.872;4.312;2022-12-07T04:29:05;26.60;;;17.30;;
22111;SDS011;11222;50.872;4.312;2022-12-07T04:31:31;26.48;;;17.27;;
22111;SDS011;11222;50.872;4.312;2022-12-07T04:33:56;25.95;;;16.13;;
22111;SDS011;11222;50.872;4.312;2022-12-07T04:36:22;27.60;;;17.23;;
22111;SDS011;11222;50.872;4.312;2022-12-07T04:38:48;26.27;;;17.80;;
22111;SDS011;11222;50.872;4.312;2022-12-07T04:41:13;28.88;;;16.83;;
22111;SDS011;11222;50.872;4.312;2022-12-07T04:43:39;24.60;;;16.05;;
22111;SDS011;11222;50.872;4.312;2022-12-07T04:46:05;24.10;;;16.23;;
22111;SDS011;11222;50.872;4.312;2022-12-07T04:48:30;30.27;;;17.35;;
22111;SDS011;11222;50.872;4.312;2022-12-07T04:50:56;30.88;;;16.70;;
22111;SDS011;11222;50.872;4.312;2022-12-07T04:53:22;29.73;;;16.80;;
22111;SDS011;11222;50.872;4.312;2022-12-07T04:55:48;25.33;;;16.90;;
22111;SDS011;11222;50.872;4.312;2022-12-07T04:58:14;27.85;;;17.23;;
22111;SDS011;11222;50.872;4.312;2022-12-07T05:00:40;28.80;;;18.08;;
22111;SDS011;11222;50.872;4.312;2022-12-07T05:03:06;29.10;;;17.50;;
22111;SDS011;11222;50.872;4.312;2022-12-07T05:05:32;25.55;;;16.90;;
22111;SDS011;11222;50.872;4.312;2022-12-07T05:07:57;27.52;;;17.17;;
22111;SDS011;11222;50.872;4.312;2022-12-07T05:10:23;30.45;;;17.42;;
22111;SDS011;11222;50.872;4.312;2022-12-07T05:12:49;27.02;;;16.55;;
22111;SDS011;11222;50.872;4.312;2022-12-07T05:15:15;30.55;;;17.60;;
22111;SDS011;11222;50.872;4.312;2022-12-07T05:17:41;30.75;;;17.63;;
22111;SDS011;11222;50.872;4.312;2022-12-07T05:20:07;30.75;;;18.02;;
22111;SDS011;11222;50.872;4.312;2022-12-07T05:22:33;26.02;;;18.13;;
22111;SDS011;11222;50.872;4.312;2022-12-07T05:24:59;27.05;;;17.88;;
22111;SDS011;11222;50.872;4.312;2022-12-07T05:27:25;27.05;;;16.67;;
22111;SDS011;11222;50.872;4.312;2022-12-07T05:29:51;29.08;;;17.23;;
22111;SDS011;11222;50.872;4.312;2022-12-07T05:32:16;28.85;;;17.73;;
22111;SDS011;11222;50.872;4.312;2022-12-07T05:34:42;31.83;;;17.65;;
22111;SDS011;11222;50.872;4.312;2022-12-07T05:37:08;25.70;;;17.30;;
22111;SDS011;11222;50.872;4.312;2022-12-07T05:39:33;28.00;;;17.83;;
22111;SDS011;11222;50.872;4.312;2022-12-07T05:41:59;25.30;;;17.35;;
22111;SDS011;11222;50.872;4.312;2022-12-07T05:44:37;29.50;;;18.10;;
22111;SDS011;11222;50.872;4.312;2022-12-07T05:47:07;28.60;;;17.40;;
22111;SDS011;11222;50.872;4.312;2022-12-07T05:49:33;26.35;;;17.30;;
22111;SDS011;11222;50.872;4.312;2022-12-07T05:51:59;28.65;;;17.65;;
22111;SDS011;11222;50.872;4.312;2022-12-07T05:54:25;26.05;;;17.00;;
22111;SDS011;11222;50.872;4.312;2022-12-07T05:56:51;29.08;;;17.38;;
22111;SDS011;11222;50.872;4.312;2022-12-07T05:59:17;26.48;;;18.63;;
22111;SDS011;11222;50.872;4.312;2022-12-07T06:01:50;28.42;;;16.95;;
22111;SDS011;11222;50.872;4.312;2022-12-07T06:04:23;25.65;;;17.48;;
22111;SDS011;11222;50.872;4.312;2022-12-07T06:06:50;30.90;;;18.27;;
22111;SDS011;11222;50.872;4.312;2022-12-07T06:09:16;26.35;;;17.30;;
22111;SDS011;11222;50.872;4.312;2022-12-07T06:11:43;28.00;;;17.58;;
22111;SDS011;11222;50.872;4.312;2022-12-07T06:14:28;24.60;;;16.92;;
22111;SDS011;11222;50.872;4.312;2022-12-07T06:16:53;25.65;;;17.67;;
22111;SDS011;11222;50.872;4.312;2022-12-07T06:19:23;26.42;;;17.65;;
22111;SDS011;11222;50.872;4.312;2022-12-07T06:21:49;27.42;;;18.02;;
22111;SDS011;11222;50.872;4.312;2022-12-07T06:24:15;29.58;;;17.58;;
22111;SDS011;11222;50.872;4.312;2022-12-07T06:26:42;26.45;;;18.13;;
22111;SDS011;11222;50.872;4.312;2022-12-07T06:29:07;30.20;;;18.70;;
22111;SDS011;11222;50.872;4.312;2022-12-07T06:31:34;28.88;;;17.23;;
22111;SDS011;11222;50.872;4.312;2022-12-07T06:34:01;27.45;;;17.85;;
22111;SDS011;11222;50.872;4.312;2022-12-07T06:36:29;24.83;;;17.00;;
22111;SDS011;11222;50.872;4.312;2022-12-07T06:38:55;25.42;;;17.48;;
22111;SDS011;11222;50.872;4.312;2022-12-07T06:41:21;29.20;;;16.60;;
22111;SDS011;11222;50.872;4.312;2022-12-07T06:43:47;26.92;;;17.27;;
22111;SDS011;11222;50.872;4.312;2022-12-07T06:46:14;23.80;;;16.75;;
22111;SDS011;11222;50.872;4.312;2022-12-07T06:48:40;26.88;;;15.60;;
22111;SDS011;11222;50.872;4.312;2022-12-07T06:51:07;26.52;;;16.08;;
22111;SDS011;11222;50.872;4.312;2022-12-07T06:53:33;25.85;;;15.20;;
22111;SDS011;11222;50.872;4.312;2022-12-07T06:55:59;27.50;;;15.65;;
22111;SDS011;11222;50.872;4.312;2022-12-07T06:58:25;22.02;;;13.95;;
22111;SDS011;11222;50.872;4.312;2022-12-07T07:00:51;24.17;;;14.38;;
22111;SDS011;11222;50.872;4.312;2022-12-07T07:03:17;24.05;;;15.52;;
22111;SDS011;11222;50.872;4.312;2022-12-07T07:05:43;24.60;;;15.10;;
22111;SDS011;11222;50.872;4.312;2022-12-07T07:08:09;25.13;;;14.38;;
22111;SDS011;11222;50.872;4.312;2022-12-07T07:10:36;27.85;;;14.65;;
22111;SDS011;11222;50.872;4.312;2022-12-07T07:13:02;24.92;;;16.77;;
22111;SDS011;11222;50.872;4.312;2022-12-07T07:15:29;25.88;;;17.33;;
22111;SDS011;11222;50.872;4.312;2022-12-07T07:17:54;24.70;;;15.98;;
22111;SDS011;11222;50.872;4.312;2022-12-07T07:20:21;25.50;;;15.90;;
22111;SDS011;11222;50.872;4.312;2022-12-07T07:22:47;29.75;;;17.58;;
22111;SDS011;11222;50.872;4.312;2022-12-07T07:25:13;27.10;;;18.58;;
22111;SDS011;11222;50.872;4.312;2022-12-07T07:27:39;27.02;;;17.27;;
22111;SDS011;11222;50.872;4.312;2022-12-07T07:30:05;27.58;;;17.95;;
22111;SDS011;11222;50.872;4.312;2022-12-07T07:32:32;26.92;;;17.10;;
22111;SDS011;11222;50.872;4.312;2022-12-07T07:34:58;27.35;;;17.75;;
22111;SDS011;11222;50.872;4.312;2022-12-07T07:37:24;28.48;;;18.45;;
22111;SDS011;11222;50.872;4.312;2022-12-07T07:39:50;25.90;;;16.70;;
22111;SDS011;11222;50.872;4.312;2022-12-07T07:42:15;25.58;;;16.45;;
22111;SDS011;11222;50.872;4.312;2022-12-07T07:44:41;28.52;;;17.58;;
22111;SDS011;11222;50.872;4.312;2022-12-07T07:47:07;105.43;;;24.92;;
22111;SDS011;11222;50.872;4.312;2022-12-07T07:49:32;27.88;;;16.90;;
22111;SDS011;11222;50.872;4.312;2022-12-07T07:51:58;26.25;;;16.60;;
22111;SDS011;11222;50.872;4.312;2022-12-07T07:54:25;25.42;;;16.35;;
22111;SDS011;11222;50.872;4.312;2022-12-07T07:56:52;29.33;;;16.63;;
22111;SDS011;11222;50.872;4.312;2022-12-07T07:59:17;37.35;;;16.92;;
22111;SDS011;11222;50.872;4.312;2022-12-07T08:01:43;25.58;;;16.48;;
22111;SDS011;11222;50.872;4.312;2022-12-07T08:04:09;26.85;;;16.63;;
22111;SDS011;11222;50.872;4.312;2022-12-07T08:06:35;27.17;;;15.77;;
22111;SDS011;11222;50.872;4.312;2022-12-07T08:09:01;24.95;;;16.30;;
22111;SDS011;11222;50.872;4.312;2022-12-07T08:11:27;27.50;;;15.15;;
22111;SDS011;11222;50.872;4.312;2022-12-07T08:13:53;25.17;;;14.90;;
22111;SDS011;11222;50.872;4.312;2022-12-07T08:16:19;27.73;;;14.82;;
22111;SDS011;11222;50.872;4.312;2022-12-07T08:18:45;20.63;;;13.93;;
22111;SDS011;11222;50.872;4.312;2022-12-07T08:21:12;22.42;;;15.00;;
22111;SDS011;11222;50.872;4.312;2022-12-07T08:23:39;22.52;;;14.85;;
22111;SDS011;11222;50.872;4.312;2022-12-07T08:26:07;21.85;;;13.95;;
22111;SDS011;11222;50.872;4.312;2022-12-07T08:28:35;24.17;;;15.57;;
22111;SDS011;11222;50.872;4.312;2022-12-07T08:31:01;27.50;;;15.43;;
22111;SDS011;11222;50.872;4.312;2022-12-07T08:33:32;54.00;;;17.75;;
22111;SDS011;11222;50.872;4.312;2022-12-07T08:36:05;27.45;;;16.60;;
22111;SDS011;11222;50.872;4.312;2022-12-07T08:38:34;25.48;;;16.92;;
22111;SDS011;11222;50.872;4.312;2022-12-07T08:41:01;25.92;;;16.35;;
22111;SDS011;11222;50.872;4.312;2022-12-07T08:43:27;35.47;;;18.48;;
22111;SDS011;11222;50.872;4.312;2022-12-07T08:46:00;32.40;;;18.17;;
22111;SDS011;11222;50.872;4.312;2022-12-07T08:48:32;41.65;;;19.10;;
22111;SDS011;11222;50.872;4.312;2022-12-07T08:51:00;31.15;;;18.08;;
22111;SDS011;11222;50.872;4.312;2022-12-07T08:53:27;37.42;;;16.88;;
22111;SDS011;11222;50.872;4.312;2022-12-07T08:55:53;26.30;;;16.40;;
22111;SDS011;11222;50.872;4.312;2022-12-07T08:58:20;26.25;;;14.93;;
22111;SDS011;11222;50.872;4.312;2022-12-07T09:00:46;47.92;;;15.35;;
22111;SDS011;11222;50.872;4.312;2022-12-07T09:03:12;17.58;;;12.73;;
22111;SDS011;11222;50.872;4.312;2022-12-07T09:05:38;23.95;;;13.02;;
22111;SDS011;11222;50.872;4.312;2022-12-07T09:08:03;26.10;;;14.40;;
22111;SDS011;11222;50.872;4.312;2022-12-07T09:10:29;20.75;;;12.27;;
22111;SDS011;11222;50.872;4.312;2022-12-07T09:12:55;23.35;;;12.95;;
22111;SDS011;11222;50.872;4.312;2022-12-07T09:15:25;21.75;;;12.93;;
22111;SDS011;11222;50.872;4.312;2022-12-07T09:17:52;21.05;;;12.32;;
22111;SDS011;11222;50.872;4.312;2022-12-07T09:20:18;18.92;;;12.02;;
22111;SDS011;11222;50.872;4.312;2022-12-07T09:22:44;20.38;;;12.35;;
22111;SDS011;11222;50.872;4.312;2022-12-07T09:25:10;22.02;;;12.38;;
22111;SDS011;11222;50.872;4.312;2022-12-07T09:27:35;22.95;;;12.73;;
22111;SDS011;11222;50.872;4.312;2022-12-07T09:30:01;23.50;;;12.68;;
22111;SDS011;11222;50.872;4.312;2022-12-07T09:32:28;19.83;;;11.63;;
22111;SDS011;11222;50.872;4.312;2022-12-07T09:34:54;21.00;;;11.52;;
22111;SDS011;11222;50.872;4.312;2022-12-07T09:37:20;20.75;;;11.18;;
22111;SDS011;11222;50.872;4.312;2022-12-07T09:39:45;18.20;;;10.15;;
22111;SDS011;11222;50.872;4.312;2022-12-07T09:42:17;17.90;;;9.70;;
22111;SDS011;11222;50.872;4.312;2022-12-07T09:44:58;16.33;;;9.63;;
22111;SDS011;11222;50.872;4.312;2022-12-07T09:47:25;19.50;;;9.95;;
22111;SDS011;11222;50.872;4.312;2022-12-07T09:49:52;14.43;;;9.73;;
22111;SDS011;11222;50.872;4.312;2022-12-07T09:52:26;17.63;;;10.20;;
22111;SDS011;11222;50.872;4.312;2022-12-07T09:54:54;15.35;;;9.55;;
22111;SDS011;11222;50.872;4.312;2022-12-07T09:57:21;22.42;;;9.65;;
22111;SDS011;11222;50.872;4.312;2022-12-07T09:59:59;18.58;;;9.63;;
22111;SDS011;11222;50.872;4.312;2022-12-07T10:02:34;13.85;;;8.88;;
22111;SDS011;11222;50.872;4.312;2022-12-07T10:05:00;17.30;;;10.18;;
22111;SDS011;11222;50.872;4.312;2022-12-07T10:07:26;14.60;;;9.50;;
22111;SDS011;11222;50.872;4.312;2022-12-07T10:09:52;15.10;;;8.30;;
22111;SDS011;11222;50.872;4.312;2022-12-07T10:12:17;12.07;;;7.45;;
22111;SDS011;11222;50.872;4.312;2022-12-07T10:14:57;16.38;;;8.82;;
22111;SDS011;11222;50.872;4.312;2022-12-07T10:17:40;15.05;;;8.93;;
22111;SDS011;11222;50.872;4.312;2022-12-07T10:22:57;16.25;;;9.60;;
22111;SDS011;11222;50.872;4.312;2022-12-07T10:25:24;16.35;;;9.20;;
22111;SDS011;11222;50.872;4.312;2022-12-07T10:33:31;13.27;;;8.70;;
22111;SDS011;11222;50.872;4.312;2022-12-07T10:36:00;15.05;;;8.50;;
22111;SDS011;11222;50.872;4.312;2022-12-07T10:38:39;16.15;;;9.43;;
22111;SDS011;11222;50.872;4.312;2022-12-07T10:41:10;15.63;;;8.27;;
22111;SDS011;11222;50.872;4.312;2022-12-07T10:43:36;18.45;;;9.43;;
22111;SDS011;11222;50.872;4.312;2022-12-07T10:49:08;13.65;;;9.05;;
22111;SDS011;11222;50.872;4.312;2022-12-07T11:02:59;13.30;;;8.18;;
22111;SDS011;11222;50.872;4.312;2022-12-07T11:08:54;13.80;;;8.23;;
22111;SDS011;11222;50.872;4.312;2022-12-07T11:17:56;14.43;;;8.32;;
22111;SDS011;11222;50.872;4.312;2022-12-07T11:20:39;16.88;;;8.00;;
22111;SDS011;11222;50.872;4.312;2022-12-07T11:23:40;15.43;;;7.95;;
22111;SDS011;11222;50.872;4.312;2022-12-07T11:26:09;16.30;;;8.65;;
22111;SDS011;11222;50.872;4.312;2022-12-07T11:29:05;17.80;;;7.93;;
22111;SDS011;11222;50.872;4.312;2022-12-07T11:31:54;13.10;;;8.23;;
22111;SDS011;11222;50.872;4.312;2022-12-07T11:37:43;16.23;;;8.95;;
22111;SDS011;11222;50.872;4.312;2022-12-07T11:42:49;14.35;;;8.40;;
22111;SDS011;11222;50.872;4.312;2022-12-07T12:14:46;6.88;;;3.95;;
22111;SDS011;11222;50.872;4.312;2022-12-07T12:20:28;12.57;;;5.00;;
22111;SDS011;11222;50.872;4.312;2022-12-07T12:25:44;5.72;;;3.42;;
22111;SDS011;11222;50.872;4.312;2022-12-07T12:28:27;6.65;;;3.60;;
22111;SDS011;11222;50.872;4.312;2022-12-07T12:31:14;8.98;;;3.30;;
22111;SDS011;11222;50.872;4.312;2022-12-07T12:33:55;5.70;;;3.40;;
22111;SDS011;11222;50.872;4.312;2022-12-07T12:39:09;6.90;;;3.10;;
22111;SDS011;11222;50.872;4.312;2022-12-07T12:51:49;4.70;;;2.97;;
22111;SDS011;11222;50.872;4.312;2022-12-07T12:54:29;9.35;;;3.42;;
22111;SDS011;11222;50.872;4.312;2022-12-07T13:02:30;10.43;;;3.85;;
22111;SDS011;11222;50.872;4.312;2022-12-07T13:10:25;8.25;;;3.25;;
22111;SDS011;11222;50.872;4.312;2022-12-07T13:13:00;8.00;;;3.53;;
22111;SDS011;11222;50.872;4.312;2022-12-07T13:31:52;8.10;;;3.40;;
22111;SDS011;11222;50.872;4.312;2022-12-07T13:34:33;7.40;;;3.30;;
22111;SDS011;11222;50.872;4.312;2022-12-07T13:42:29;8.88;;;3.53;;
22111;SDS011;11222;50.872;4.312;2022-12-07T13:44:58;7.07;;;3.40;;
22111;SDS011;11222;50.872;4.312;2022-12-07T13:47:35;8.90;;;3.22;;
22111;SDS011;11222;50.872;4.312;2022-12-07T13:50:22;8.77;;;3.60;;
22111;SDS011;11222;50.872;4.312;2022-12-07T13:52:55;11.65;;;3.78;;
22111;SDS011;11222;50.872;4.312;2022-12-07T13:55:22;7.82;;;3.60;;
22111;SDS011;11222;50.872;4.312;2022-12-07T13:57:49;8.00;;;3.70;;
22111;SDS011;11222;50.872;4.312;2022-12-07T14:00:18;9.15;;;3.78;;
22111;SDS011;11222;50.872;4.312;2022-12-07T14:02:59;4.70;;;2.45;;
22111;SDS011;11222;50.872;4.312;2022-12-07T14:05:38;5.05;;;2.88;;
22111;SDS011;11222;50.872;4.312;2022-12-07T14:08:06;9.48;;;3.60;;
22111;SDS011;11222;50.872;4.312;2022-12-07T14:13:35;5.88;;;2.45;;
22111;SDS011;11222;50.872;4.312;2022-12-07T14:18:54;7.53;;;2.53;;
22111;SDS011;11222;50.872;4.312;2022-12-07T14:21:22;7.72;;;2.88;;
22111;SDS011;11222;50.872;4.312;2022-12-07T14:26:34;4.05;;;2.35;;
22111;SDS011;11222;50.872;4.312;2022-12-07T14:31:56;7.00;;;2.40;;
22111;SDS011;11222;50.872;4.312;2022-12-07T14:34:24;4.90;;;2.00;;
22111;SDS011;11222;50.872;4.312;2022-12-07T14:36:50;8.50;;;2.40;;
22111;SDS011;11222;50.872;4.312;2022-12-07T14:39:16;11.02;;;2.60;;
22111;SDS011;11222;50.872;4.312;2022-12-07T14:41:41;6.93;;;2.70;;
22111;SDS011;11222;50.872;4.312;2022-12-07T14:44:17;4.53;;;2.63;;
22111;SDS011;11222;50.872;4.312;2022-12-07T14:46:45;5.93;;;3.17;;
22111;SDS011;11222;50.872;4.312;2022-12-07T14:49:11;5.80;;;3.15;;
22111;SDS011;11222;50.872;4.312;2022-12-07T14:51:37;6.75;;;3.22;;
22111;SDS011;11222;50.872;4.312;2022-12-07T14:54:05;5.47;;;2.92;;
22111;SDS011;11222;50.872;4.312;2022-12-07T14:56:34;9.70;;;3.10;;
22111;SDS011;11222;50.872;4.312;2022-12-07T14:59:00;5.22;;;2.63;;
22111;SDS011;11222;50.872;4.312;2022-12-07T15:01:26;5.15;;;3.13;;
22111;SDS011;11222;50.872;4.312;2022-12-07T15:03:51;8.48;;;3.60;;
22111;SDS011;11222;50.872;4.312;2022-12-07T15:06:17;4.88;;;2.40;;
22111;SDS011;11222;50.872;4.312;2022-12-07T15:08:43;7.13;;;2.75;;
22111;SDS011;11222;50.872;4.312;2022-12-07T15:11:13;4.30;;;2.38;;
22111;SDS011;11222;50.872;4.312;2022-12-07T15:13:40;3.30;;;2.08;;
22111;SDS011;11222;50.872;4.312;2022-12-07T15:16:24;4.78;;;2.92;;
22111;SDS011;11222;50.872;4.312;2022-12-07T15:18:50;5.32;;;2.53;;
22111;SDS011;11222;50.872;4.312;2022-12-07T15:21:16;7.32;;;2.80;;
22111;SDS011;11222;50.872;4.312;2022-12-07T15:23:42;6.53;;;2.72;;
22111;SDS011;11222;50.872;4.312;2022-12-07T15:26:09;20.35;;;3.53;;
22111;SDS011;11222;50.872;4.312;2022-12-07T15:28:35;5.63;;;2.45;;
22111;SDS011;11222;50.872;4.312;2022-12-07T15:31:01;5.63;;;2.67;;
22111;SDS011;11222;50.872;4.312;2022-12-07T15:33:27;7.78;;;3.00;;
22111;SDS011;11222;50.872;4.312;2022-12-07T15:35:52;13.25;;;4.07;;
22111;SDS011;11222;50.872;4.312;2022-12-07T15:38:18;16.33;;;4.22;;
22111;SDS011;11222;50.872;4.312;2022-12-07T15:40:47;7.82;;;3.83;;
22111;SDS011;11222;50.872;4.312;2022-12-07T15:43:13;18.65;;;5.03;;
22111;SDS011;11222;50.872;4.312;2022-12-07T15:45:57;8.07;;;4.23;;
22111;SDS011;11222;50.872;4.312;2022-12-07T15:48:24;19.70;;;5.15;;
22111;SDS011;11222;50.872;4.312;2022-12-07T15:50:50;14.48;;;4.88;;
22111;SDS011;11222;50.872;4.312;2022-12-07T15:53:15;22.42;;;5.38;;
22111;SDS011;11222;50.872;4.312;2022-12-07T15:55:42;8.82;;;4.45;;
22111;SDS011;11222;50.872;4.312;2022-12-07T15:58:07;8.32;;;4.82;;
22111;SDS011;11222;50.872;4.312;2022-12-07T16:00:33;10.93;;;5.63;;
22111;SDS011;11222;50.872;4.312;2022-12-07T16:02:59;10.32;;;5.75;;
22111;SDS011;11222;50.872;4.312;2022-12-07T16:05:25;8.23;;;5.70;;
22111;SDS011;11222;50.872;4.312;2022-12-07T16:07:50;10.73;;;5.22;;
22111;SDS011;11222;50.872;4.312;2022-12-07T16:10:17;8.57;;;5.57;;
22111;SDS011;11222;50.872;4.312;2022-12-07T16:12:43;11.50;;;5.55;;
22111;SDS011;11222;50.872;4.312;2022-12-07T16:15:09;10.35;;;5.20;;
22111;SDS011;11222;50.872;4.312;2022-12-07T16:17:35;13.35;;;6.18;;
22111;SDS011;11222;50.872;4.312;2022-12-07T16:20:01;12.38;;;6.15;;
22111;SDS011;11222;50.872;4.312;2022-12-07T16:22:28;11.48;;;6.25;;
22111;SDS011;11222;50.872;4.312;2022-12-07T16:24:53;103.38;;;49.05;;
22111;SDS011;11222;50.872;4.312;2022-12-07T16:27:19;11.30;;;6.53;;
22111;SDS011;11222;50.872;4.312;2022-12-07T16:29:45;11.93;;;6.57;;
22111;SDS011;11222;50.872;4.312;2022-12-07T16:32:11;12.10;;;6.20;;
22111;SDS011;11222;50.872;4.312;2022-12-07T16:34:36;13.27;;;6.50;;
22111;SDS011;11222;50.872;4.312;2022-12-07T16:37:02;13.77;;;6.97;;
22111;SDS011;11222;50.872;4.312;2022-12-07T16:39:28;14.40;;;7.65;;
22111;SDS011;11222;50.872;4.312;2022-12-07T16:41:54;14.93;;;8.10;;
22111;SDS011;11222;50.872;4.312;2022-12-07T16:44:19;15.60;;;8.30;;
22111;SDS011;11222;50.872;4.312;2022-12-07T16:46:46;15.05;;;8.32;;
22111;SDS011;11222;50.872;4.312;2022-12-07T16:49:13;14.35;;;7.70;;
22111;SDS011;11222;50.872;4.312;2022-12-07T16:51:40;11.57;;;7.53;;
22111;SDS011;11222;50.872;4.312;2022-12-07T16:54:11;11.98;;;7.65;;
22111;SDS011;11222;50.872;4.312;2022-12-07T16:56:37;22.65;;;11.90;;
22111;SDS011;11222;50.872;4.312;2022-12-07T16:59:03;14.35;;;8.20;;
22111;SDS011;11222;50.872;4.312;2022-12-07T17:01:29;13.38;;;8.00;;
22111;SDS011;11222;50.872;4.312;2022-12-07T17:03:56;16.38;;;7.93;;
22111;SDS011;11222;50.872;4.312;2022-12-07T17:06:24;14.80;;;8.30;;
22111;SDS011;11222;50.872;4.312;2022-12-07T17:08:51;17.00;;;8.65;;
22111;SDS011;11222;50.872;4.312;2022-12-07T17:11:18;15.48;;;8.13;;
22111;SDS011;11222;50.872;4.312;2022-12-07T17:13:47;15.02;;;8.60;;
22111;SDS011;11222;50.872;4.312;2022-12-07T17:16:31;15.63;;;8.10;;
22111;SDS011;11222;50.872;4.312;2022-12-07T17:18:58;14.73;;;7.95;;
22111;SDS011;11222;50.872;4.312;2022-12-07T17:21:24;12.77;;;7.85;;